createdAt,value
2017-09-18T00:02:01.971Z,69.77
2017-09-18T00:04:29.366Z,69.15
2017-09-18T00:06:56.738Z,69.11
2017-09-18T00:09:24.131Z,68.90
2017-09-18T00:11:51.520Z,68.41
2017-09-18T00:14:19.006Z,68.67
2017-09-18T00:16:46.450Z,68.74
2017-09-18T00:19:13.841Z,69.83
2017-09-18T00:21:41.222Z,69.83
2017-09-18T00:24:08.606Z,69.62
2017-09-18T00:26:35.998Z,69.50
2017-09-18T00:29:03.383Z,70.23
2017-09-18T00:31:30.787Z,69.72
2017-09-18T00:33:58.174Z,69.78
2017-09-18T00:36:25.558Z,71.20
2017-09-18T00:38:52.955Z,71.03
2017-09-18T00:41:20.343Z,69.91
2017-09-18T00:43:47.734Z,69.39
2017-09-18T00:46:15.125Z,68.96
2017-09-18T00:48:42.514Z,68.74
2017-09-18T00:51:09.897Z,69.16
2017-09-18T00:53:37.292Z,68.37
2017-09-18T00:56:04.678Z,68.33
2017-09-18T00:58:32.079Z,68.92
2017-09-18T01:00:59.454Z,69.85
2017-09-18T01:03:26.858Z,71.00
2017-09-18T01:05:54.238Z,71.32
2017-09-18T01:08:21.622Z,73.12
2017-09-18T01:10:49.023Z,73.42
2017-09-18T01:13:16.415Z,73.82
2017-09-18T01:15:43.814Z,73.73
2017-09-18T01:18:11.198Z,75.05
2017-09-18T01:20:38.586Z,74.59
2017-09-18T01:23:05.970Z,73.86
2017-09-18T01:25:33.380Z,73.23
2017-09-18T01:28:00.767Z,73.21
2017-09-18T01:30:28.163Z,72.74
2017-09-18T01:32:55.543Z,72.21
2017-09-18T01:35:22.939Z,71.12
2017-09-18T01:37:50.378Z,72.09
2017-09-18T01:40:17.782Z,72.97
2017-09-18T01:42:45.175Z,74.84
2017-09-18T01:45:12.547Z,75.30
2017-09-18T01:47:40.006Z,73.53
2017-09-18T01:50:07.390Z,72.85
2017-09-18T01:52:34.789Z,72.12
2017-09-18T01:55:02.271Z,71.02
2017-09-18T01:57:29.666Z,70.28
2017-09-18T01:59:57.057Z,69.84
2017-09-18T02:02:24.446Z,70.22
2017-09-18T02:04:51.834Z,70.02
2017-09-18T02:07:19.226Z,69.35
2017-09-18T02:09:46.702Z,69.14
2017-09-18T02:12:14.091Z,69.62
2017-09-18T02:14:41.475Z,68.98
2017-09-18T02:17:08.862Z,69.49
2017-09-18T02:19:36.246Z,69.50
2017-09-18T02:22:03.651Z,69.08
2017-09-18T02:24:31.130Z,69.62
2017-09-18T02:26:58.520Z,69.59
2017-09-18T02:29:25.910Z,69.49
2017-09-18T02:31:53.290Z,69.37
2017-09-18T02:34:20.687Z,69.01
2017-09-18T02:36:48.073Z,69.08
2017-09-18T02:39:15.466Z,69.45
2017-09-18T02:41:42.855Z,69.84
2017-09-18T02:44:10.243Z,70.16
2017-09-18T02:49:11.410Z,69.76
2017-09-18T02:51:38.794Z,69.85
2017-09-18T02:54:06.191Z,69.68
2017-09-18T02:56:33.590Z,69.12
2017-09-18T02:59:00.993Z,69.29
2017-09-18T03:01:28.383Z,69.37
2017-09-18T03:03:55.778Z,69.94
2017-09-18T03:06:23.167Z,72.06
2017-09-18T03:08:50.567Z,70.90
2017-09-18T03:11:17.950Z,70.30
2017-09-18T03:13:45.335Z,70.11
2017-09-18T03:16:12.834Z,71.46
2017-09-18T03:18:40.291Z,73.03
2017-09-18T03:21:07.751Z,74.10
2017-09-18T03:23:35.135Z,74.34
2017-09-18T03:26:02.522Z,74.12
2017-09-18T03:28:29.914Z,74.58
2017-09-18T03:30:57.303Z,74.18
2017-09-18T03:33:24.690Z,73.82
2017-09-18T03:35:52.082Z,73.50
2017-09-18T03:38:19.470Z,73.70
2017-09-18T03:40:46.871Z,74.62
2017-09-18T03:43:14.263Z,75.92
2017-09-18T03:45:41.658Z,74.73
2017-09-18T03:48:09.043Z,75.29
2017-09-18T03:50:36.433Z,74.76
2017-09-18T03:53:03.830Z,74.61
2017-09-18T03:55:31.214Z,74.17
2017-09-18T03:57:58.609Z,73.84
2017-09-18T04:00:26.010Z,73.98
2017-09-18T04:02:53.406Z,73.88
2017-09-18T04:05:20.790Z,73.57
2017-09-18T04:07:48.186Z,74.19
2017-09-18T04:10:15.573Z,74.62
2017-09-18T04:12:42.977Z,73.90
2017-09-18T04:15:10.458Z,74.08
2017-09-18T04:17:37.858Z,74.11
2017-09-18T04:20:05.274Z,74.03
2017-09-18T04:22:32.666Z,73.19
2017-09-18T04:25:00.051Z,72.87
2017-09-18T04:27:27.439Z,72.50
2017-09-18T04:29:54.823Z,72.14
2017-09-18T04:32:22.223Z,71.54
2017-09-18T04:34:49.602Z,70.89
2017-09-18T04:37:16.998Z,71.85
2017-09-18T04:39:44.417Z,73.03
2017-09-18T04:42:11.819Z,74.62
2017-09-18T04:44:39.206Z,76.20
2017-09-18T04:47:06.598Z,76.15
2017-09-18T04:49:33.991Z,76.50
2017-09-18T04:52:01.380Z,76.04
2017-09-18T04:54:28.866Z,76.57
2017-09-18T04:56:56.246Z,77.04
2017-09-18T04:59:23.638Z,78.04
2017-09-18T05:01:51.114Z,78.98
2017-09-18T05:04:18.503Z,79.28
2017-09-18T05:06:45.900Z,79.30
2017-09-18T05:09:13.296Z,78.94
2017-09-18T05:11:40.675Z,78.22
2017-09-18T05:14:08.074Z,78.37
2017-09-18T05:16:35.467Z,78.58
2017-09-18T05:19:02.854Z,77.75
2017-09-18T05:21:30.252Z,77.17
2017-09-18T05:23:57.647Z,76.96
2017-09-18T05:26:25.038Z,77.69
2017-09-18T05:28:52.444Z,77.87
2017-09-18T05:31:19.834Z,79.45
2017-09-18T05:33:47.230Z,80.65
2017-09-18T05:36:14.663Z,79.81
2017-09-18T05:38:42.050Z,79.68
2017-09-18T05:41:09.486Z,79.35
2017-09-18T05:43:36.879Z,79.01
2017-09-18T05:46:04.262Z,77.97
2017-09-18T05:48:31.663Z,77.85
2017-09-18T05:50:59.078Z,77.31
2017-09-18T05:53:26.523Z,78.20
2017-09-18T05:55:53.910Z,78.73
2017-09-18T05:58:21.313Z,77.82
2017-09-18T06:00:48.699Z,76.80
2017-09-18T06:03:16.088Z,75.89
2017-09-18T06:05:43.493Z,75.05
2017-09-18T06:08:10.888Z,75.96
2017-09-18T06:10:38.314Z,76.13
2017-09-18T06:13:05.708Z,75.22
2017-09-18T06:15:33.118Z,74.77
2017-09-18T06:18:00.508Z,75.37
2017-09-18T06:20:27.901Z,75.82
2017-09-18T06:22:55.292Z,74.99
2017-09-18T06:25:22.686Z,74.79
2017-09-18T06:27:50.078Z,75.48
2017-09-18T06:30:17.554Z,76.12
2017-09-18T06:32:44.946Z,76.45
2017-09-18T06:35:12.352Z,76.78
2017-09-18T06:37:39.747Z,77.37
2017-09-18T06:40:07.151Z,77.83
2017-09-18T06:42:34.543Z,77.40
2017-09-18T06:45:01.951Z,76.60
2017-09-18T06:47:29.346Z,77.32
2017-09-18T06:49:56.754Z,75.73
2017-09-18T06:52:24.146Z,76.73
2017-09-18T06:54:51.551Z,76.59
2017-09-18T06:57:18.960Z,78.03
2017-09-18T06:59:46.363Z,76.30
2017-09-18T07:02:13.767Z,76.23
2017-09-18T07:04:41.159Z,75.99
2017-09-18T07:07:08.560Z,74.53
2017-09-18T07:09:35.954Z,75.76
2017-09-18T07:12:03.452Z,74.32
2017-09-18T07:14:30.834Z,70.08
2017-09-18T07:16:58.230Z,63.17
2017-09-18T07:19:25.623Z,58.34
2017-09-18T07:21:53.010Z,57.67
2017-09-18T07:24:20.391Z,55.36
2017-09-18T07:26:47.827Z,53.80
2017-09-18T07:29:15.213Z,50.33
2017-09-18T07:31:42.710Z,46.98
2017-09-18T07:34:10.086Z,45.02
2017-09-18T07:36:37.479Z,44.13
2017-09-18T07:39:04.862Z,42.49
2017-09-18T07:41:32.256Z,41.47
2017-09-18T07:43:59.634Z,41.55
2017-09-18T07:46:27.102Z,41.45
2017-09-18T07:48:54.483Z,39.27
2017-09-18T07:51:21.872Z,36.77
2017-09-18T07:53:49.261Z,34.63
2017-09-18T07:56:16.652Z,35.05
2017-09-18T07:58:44.038Z,37.60
2017-09-18T08:01:11.431Z,39.14
2017-09-18T08:03:38.911Z,40.07
2017-09-18T08:06:06.295Z,42.74
2017-09-18T08:08:33.699Z,44.29
2017-09-18T08:11:01.086Z,47.35
2017-09-18T08:13:28.486Z,50.35
2017-09-18T08:15:55.866Z,48.83
2017-09-18T08:18:23.264Z,48.20
2017-09-18T08:20:50.746Z,50.58
2017-09-18T08:23:18.134Z,49.21
2017-09-18T08:25:45.530Z,50.04
2017-09-18T08:28:12.928Z,49.16
2017-09-18T08:30:40.310Z,50.49
2017-09-18T08:33:07.710Z,49.71
2017-09-18T08:35:35.099Z,51.23
2017-09-18T08:38:02.503Z,51.36
2017-09-18T08:40:29.878Z,51.29
2017-09-18T08:42:57.286Z,50.72
2017-09-18T08:45:24.702Z,51.34
2017-09-18T08:47:52.094Z,45.59
2017-09-18T08:50:19.487Z,43.58
2017-09-18T08:52:46.870Z,42.72
2017-09-18T08:55:14.258Z,41.92
2017-09-18T08:57:41.643Z,41.57
2017-09-18T09:00:09.138Z,41.08
2017-09-18T09:02:36.525Z,42.15
2017-09-18T09:05:03.916Z,43.23
2017-09-18T09:07:31.297Z,42.91
2017-09-18T09:09:58.690Z,44.13
2017-09-18T09:12:26.083Z,46.20
2017-09-18T09:14:53.473Z,47.30
2017-09-18T09:17:20.859Z,46.54
2017-09-18T09:19:48.267Z,45.41
2017-09-18T09:22:15.647Z,46.94
2017-09-18T09:24:43.038Z,45.72
2017-09-18T09:27:10.423Z,45.98
2017-09-18T09:29:37.821Z,46.71
2017-09-18T09:32:05.206Z,47.87
2017-09-18T09:34:32.603Z,47.62
2017-09-18T09:36:59.990Z,49.85
2017-09-18T09:39:27.400Z,49.69
2017-09-18T09:41:54.910Z,50.09
2017-09-18T09:44:22.286Z,49.69
2017-09-18T09:46:49.679Z,49.89
2017-09-18T09:49:17.074Z,50.24
2017-09-18T09:51:44.480Z,48.76
2017-09-18T09:54:11.879Z,46.94
2017-09-18T09:56:39.277Z,48.27
2017-09-18T09:59:06.670Z,45.68
2017-09-18T10:01:34.078Z,47.98
2017-09-18T10:04:01.511Z,50.54
2017-09-18T10:06:28.910Z,48.26
2017-09-18T10:08:56.302Z,46.56
2017-09-18T10:11:23.707Z,47.95
2017-09-18T10:13:51.106Z,49.05
2017-09-18T10:16:18.506Z,47.05
2017-09-18T10:18:45.908Z,47.07
2017-09-18T10:21:13.307Z,47.21
2017-09-18T10:23:40.698Z,47.43
2017-09-18T10:26:08.099Z,47.03
2017-09-18T10:28:35.486Z,46.72
2017-09-18T10:31:02.914Z,46.18
2017-09-18T10:33:30.310Z,46.74
2017-09-18T10:35:57.723Z,45.98
2017-09-18T10:38:25.115Z,48.84
2017-09-18T10:40:52.513Z,47.95
2017-09-18T10:43:19.913Z,48.72
2017-09-18T10:45:47.311Z,47.15
2017-09-18T10:48:15.695Z,47.33
2017-09-18T10:50:43.195Z,49.34
2017-09-18T10:53:10.583Z,50.17
2017-09-18T10:55:37.987Z,49.78
2017-09-18T10:58:05.454Z,49.93
2017-09-18T11:00:32.925Z,50.09
2017-09-18T11:03:00.315Z,49.81
2017-09-18T11:05:27.715Z,51.00
2017-09-18T11:07:55.107Z,51.87
2017-09-18T11:10:22.499Z,48.99
2017-09-18T11:12:49.998Z,50.55
2017-09-18T11:15:17.399Z,48.71
2017-09-18T11:17:44.795Z,50.21
2017-09-18T11:20:12.272Z,50.21
2017-09-18T11:22:39.666Z,48.84
2017-09-18T11:25:07.078Z,49.49
2017-09-18T11:27:34.474Z,50.50
2017-09-18T11:30:01.867Z,52.46
2017-09-18T11:32:29.254Z,49.83
2017-09-18T11:34:56.638Z,50.33
2017-09-18T11:37:24.026Z,51.42
2017-09-18T11:39:51.420Z,51.65
2017-09-18T11:42:18.878Z,51.81
2017-09-18T11:44:46.331Z,49.93
2017-09-18T11:47:13.790Z,50.71
2017-09-18T11:49:41.175Z,51.48
2017-09-18T11:52:08.604Z,51.08
2017-09-18T11:54:35.986Z,51.80
2017-09-18T11:57:03.386Z,51.85
2017-09-18T11:59:30.779Z,50.64
2017-09-18T12:02:07.722Z,51.15
2017-09-18T12:04:35.111Z,51.65
2017-09-18T12:07:02.502Z,52.92
2017-09-18T12:09:29.883Z,49.25
2017-09-18T12:11:57.271Z,49.34
2017-09-18T12:14:24.662Z,50.38
2017-09-18T12:16:52.055Z,53.05
2017-09-18T12:19:19.542Z,53.16
2017-09-18T12:21:46.978Z,50.82
2017-09-18T12:24:14.370Z,52.35
2017-09-18T12:26:41.824Z,54.21
2017-09-18T12:29:09.216Z,53.28
2017-09-18T12:31:36.606Z,55.13
2017-09-18T12:34:03.994Z,55.37
2017-09-18T12:36:31.379Z,54.94
2017-09-18T12:38:58.770Z,55.50
2017-09-18T12:41:26.227Z,53.96
2017-09-18T12:43:53.618Z,52.77
2017-09-18T12:46:21.002Z,54.09
2017-09-18T12:48:48.393Z,53.88
2017-09-18T12:51:15.798Z,53.63
2017-09-18T12:53:43.191Z,54.08
2017-09-18T12:56:10.594Z,52.39
2017-09-18T12:58:37.979Z,52.27
2017-09-18T13:01:05.372Z,52.10
2017-09-18T13:03:32.763Z,52.78
2017-09-18T13:06:00.151Z,52.54
2017-09-18T13:08:27.543Z,51.99
2017-09-18T13:10:54.931Z,53.07
2017-09-18T13:13:22.318Z,53.92
2017-09-18T13:15:49.715Z,53.31
2017-09-18T13:18:17.102Z,54.23
2017-09-18T13:20:44.506Z,54.81
2017-09-18T13:23:11.900Z,55.05
2017-09-18T13:25:39.295Z,55.62
2017-09-18T13:28:06.691Z,54.85
2017-09-18T13:30:34.162Z,56.49
2017-09-18T13:33:01.564Z,55.66
2017-09-18T13:35:28.967Z,53.50
2017-09-18T13:37:56.359Z,55.39
2017-09-18T13:40:23.750Z,52.37
2017-09-18T13:42:51.456Z,53.73
2017-09-18T13:45:18.850Z,52.23
2017-09-18T13:47:46.250Z,52.61
2017-09-18T13:50:13.630Z,50.68
2017-09-18T13:52:41.033Z,53.90
2017-09-18T13:55:08.410Z,50.06
2017-09-18T13:57:35.800Z,48.80
2017-09-18T14:00:03.988Z,50.86
2017-09-18T14:02:31.379Z,52.58
2017-09-18T14:04:58.767Z,52.82
2017-09-18T14:07:26.219Z,49.06
2017-09-18T14:09:53.602Z,48.95
2017-09-18T14:12:20.994Z,49.92
2017-09-18T14:14:48.395Z,49.09
2017-09-18T14:17:15.787Z,48.80
2017-09-18T14:19:43.171Z,48.98
2017-09-18T14:22:10.562Z,46.54
2017-09-18T14:24:37.948Z,47.08
2017-09-18T14:27:05.343Z,47.23
2017-09-18T14:29:32.726Z,47.28
2017-09-18T14:32:00.145Z,46.98
2017-09-18T14:34:27.531Z,46.01
2017-09-18T14:36:54.918Z,47.10
2017-09-18T14:39:22.318Z,47.01
2017-09-18T14:41:49.704Z,46.37
2017-09-18T14:44:17.094Z,49.38
2017-09-18T14:46:44.521Z,49.89
2017-09-18T14:49:11.919Z,49.91
2017-09-18T14:51:39.307Z,48.37
2017-09-18T14:54:06.728Z,48.69
2017-09-18T14:56:34.182Z,48.79
2017-09-18T14:59:01.584Z,48.80
2017-09-18T15:01:28.971Z,49.20
2017-09-18T15:03:56.362Z,49.25
2017-09-18T15:06:23.754Z,49.98
2017-09-18T15:08:51.146Z,49.82
2017-09-18T15:11:18.531Z,48.71
2017-09-18T15:13:45.939Z,46.95
2017-09-18T15:16:13.322Z,49.66
2017-09-18T15:18:40.710Z,50.70
2017-09-18T15:21:08.150Z,51.86
2017-09-18T15:23:35.534Z,50.71
2017-09-18T15:26:02.931Z,50.92
2017-09-18T15:28:30.314Z,51.56
2017-09-18T15:30:57.707Z,51.87
2017-09-18T15:33:25.091Z,51.95
2017-09-18T15:35:52.491Z,52.14
2017-09-18T15:38:19.879Z,51.83
2017-09-18T15:40:47.277Z,54.14
2017-09-18T15:43:14.673Z,54.64
2017-09-18T15:45:42.064Z,53.61
2017-09-18T15:48:09.459Z,52.92
2017-09-18T15:50:36.859Z,53.80
2017-09-18T15:53:04.246Z,52.37
2017-09-18T15:55:31.664Z,53.25
2017-09-18T15:57:59.051Z,51.61
2017-09-18T16:00:26.445Z,53.21
2017-09-18T16:02:53.830Z,52.18
2017-09-18T16:05:21.214Z,51.14
2017-09-18T16:07:48.607Z,51.57
2017-09-18T16:10:15.995Z,53.48
2017-09-18T16:12:43.466Z,53.60
2017-09-18T16:15:10.851Z,51.89
2017-09-18T16:17:38.254Z,53.56
2017-09-18T16:20:05.638Z,53.88
2017-09-18T16:22:33.035Z,54.43
2017-09-18T16:25:00.415Z,55.80
2017-09-18T16:27:27.814Z,55.93
2017-09-18T16:29:55.204Z,54.95
2017-09-18T16:32:22.602Z,55.53
2017-09-18T16:34:49.988Z,55.24
2017-09-18T16:37:17.388Z,56.48
2017-09-18T16:39:44.770Z,55.38
2017-09-18T16:42:12.174Z,55.86
2017-09-18T16:44:39.578Z,55.93
2017-09-18T16:47:06.979Z,57.09
2017-09-18T16:49:34.363Z,59.86
2017-09-18T16:52:01.746Z,60.20
2017-09-18T16:54:29.143Z,60.33
2017-09-18T16:56:56.533Z,59.60
2017-09-18T16:59:23.926Z,59.88
2017-09-18T17:01:51.306Z,59.72
2017-09-18T17:04:18.699Z,60.28
2017-09-18T17:06:46.081Z,58.16
2017-09-18T17:09:13.474Z,59.28
2017-09-18T17:11:40.866Z,59.56
2017-09-18T17:14:08.257Z,61.73
2017-09-18T17:16:35.640Z,63.04
2017-09-18T17:19:03.050Z,63.97
2017-09-18T17:21:30.434Z,63.74
2017-09-18T17:23:57.826Z,63.77
2017-09-18T17:26:25.226Z,64.54
2017-09-18T17:28:52.627Z,65.04
2017-09-18T17:31:20.161Z,64.33
2017-09-18T17:33:47.535Z,65.81
2017-09-18T17:36:14.927Z,65.60
2017-09-18T17:38:42.313Z,67.00
2017-09-18T17:41:09.702Z,66.36
2017-09-18T17:43:37.118Z,66.51
2017-09-18T17:46:04.518Z,66.42
2017-09-18T17:48:31.902Z,66.93
2017-09-18T17:50:59.301Z,67.01
2017-09-18T17:53:26.779Z,66.66
2017-09-18T17:55:54.174Z,67.86
2017-09-18T17:58:21.557Z,68.32
2017-09-18T18:00:48.959Z,67.82
2017-09-18T18:03:16.343Z,67.69
2017-09-18T18:05:43.743Z,68.35
2017-09-18T18:08:11.140Z,69.07
2017-09-18T18:10:38.537Z,69.71
2017-09-18T18:13:05.934Z,70.81
2017-09-18T18:15:33.352Z,72.41
2017-09-18T18:18:00.759Z,73.02
2017-09-18T18:20:28.259Z,73.71
2017-09-18T18:22:55.658Z,75.49
2017-09-18T18:25:23.067Z,74.47
2017-09-18T18:27:50.462Z,74.47
2017-09-18T18:30:17.875Z,73.94
2017-09-18T18:32:45.284Z,74.03
2017-09-18T18:35:12.686Z,74.20
2017-09-18T18:37:40.087Z,73.10
2017-09-18T18:40:07.498Z,72.05
2017-09-18T18:42:34.903Z,71.49
2017-09-18T18:45:02.282Z,71.28
2017-09-18T18:47:29.683Z,73.18
2017-09-18T18:49:57.075Z,73.66
2017-09-18T18:52:24.462Z,74.15
2017-09-18T18:54:51.853Z,73.17
2017-09-18T18:57:19.263Z,73.69
2017-09-18T18:59:46.742Z,73.89
2017-09-18T19:02:14.135Z,73.79
2017-09-18T19:04:41.530Z,72.22
2017-09-18T19:07:08.924Z,73.54
2017-09-18T19:09:36.310Z,71.94
2017-09-18T19:12:03.696Z,71.51
2017-09-18T19:14:31.093Z,71.82
2017-09-18T19:16:58.482Z,71.39
2017-09-18T19:19:25.870Z,69.88
2017-09-18T19:21:53.259Z,69.55
2017-09-18T19:24:20.646Z,70.21
2017-09-18T19:26:48.054Z,70.37
2017-09-18T19:29:15.450Z,69.81
2017-09-18T19:31:42.863Z,70.05
2017-09-18T19:34:10.323Z,69.92
2017-09-18T19:36:38.087Z,69.73
2017-09-18T19:39:05.482Z,68.48
2017-09-18T19:41:32.897Z,68.44
2017-09-18T19:44:00.279Z,67.33
2017-09-18T19:46:27.675Z,68.81
2017-09-18T19:48:55.071Z,68.55
2017-09-18T19:51:22.464Z,68.39
2017-09-18T19:53:49.851Z,68.41
2017-09-18T19:56:17.258Z,68.49
2017-09-18T19:58:44.638Z,68.30
2017-09-18T20:01:12.134Z,67.85
2017-09-18T20:03:39.526Z,69.07
2017-09-18T20:06:06.914Z,67.99
2017-09-18T20:08:34.307Z,68.25
2017-09-18T20:11:01.717Z,68.25
2017-09-18T20:13:29.094Z,67.76
2017-09-18T20:15:56.484Z,67.26
2017-09-18T20:18:23.870Z,67.04
2017-09-18T20:20:51.254Z,67.25
2017-09-18T20:23:18.646Z,66.99
2017-09-18T20:25:46.094Z,65.31
2017-09-18T20:28:13.482Z,65.43
2017-09-18T20:30:40.900Z,65.23
2017-09-18T20:33:08.286Z,65.41
2017-09-18T20:35:35.677Z,65.93
2017-09-18T20:38:03.223Z,66.08
2017-09-18T20:40:30.631Z,67.35
2017-09-18T20:42:58.026Z,68.52
2017-09-18T20:45:25.435Z,69.23
2017-09-18T20:47:52.852Z,69.22
2017-09-18T20:50:20.342Z,69.12
2017-09-18T20:52:47.738Z,69.27
2017-09-18T20:55:15.138Z,70.84
2017-09-18T20:57:42.527Z,71.52
2017-09-18T21:00:09.939Z,71.85
2017-09-18T21:02:37.327Z,70.79
2017-09-18T21:05:04.730Z,70.27
2017-09-18T21:07:32.138Z,70.56
2017-09-18T21:09:59.535Z,71.52
2017-09-18T21:12:26.922Z,71.03
2017-09-18T21:14:54.327Z,70.14
2017-09-18T21:17:22.518Z,71.76
2017-09-18T21:19:49.918Z,71.43
2017-09-18T21:22:17.312Z,70.53
2017-09-18T21:24:44.722Z,69.96
2017-09-18T21:27:12.115Z,69.32
2017-09-18T21:29:39.495Z,69.68
2017-09-18T21:32:06.912Z,71.73
2017-09-18T21:34:34.367Z,71.94
2017-09-18T21:37:01.758Z,70.40
2017-09-18T21:39:29.146Z,69.94
2017-09-18T21:41:56.544Z,70.25
2017-09-18T21:44:23.978Z,72.45
2017-09-18T21:46:51.390Z,73.70
2017-09-18T21:49:18.779Z,76.34
2017-09-18T21:51:46.190Z,77.19
2017-09-18T21:54:13.588Z,77.74
2017-09-18T21:56:41.005Z,76.51
2017-09-18T21:59:08.393Z,75.28
2017-09-18T22:01:35.799Z,74.63
2017-09-18T22:04:03.271Z,76.13
2017-09-18T22:06:30.671Z,75.71
2017-09-18T22:08:58.066Z,76.32
2017-09-18T22:11:25.467Z,75.55
2017-09-18T22:13:52.864Z,74.13
2017-09-18T22:16:20.282Z,73.96
2017-09-18T22:18:47.666Z,72.55
2017-09-18T22:21:15.063Z,72.42
2017-09-18T22:23:42.475Z,71.96
2017-09-18T22:26:09.858Z,71.32
2017-09-18T22:28:37.262Z,70.76
2017-09-18T22:31:04.699Z,70.47
2017-09-18T22:33:32.159Z,70.11
2017-09-18T22:35:59.614Z,70.59
2017-09-18T22:38:27.022Z,70.18
2017-09-18T22:40:54.415Z,69.67
2017-09-18T22:43:21.847Z,71.16
2017-09-18T22:45:49.238Z,71.26
2017-09-18T22:48:16.639Z,71.44
2017-09-18T22:50:44.051Z,70.87
2017-09-18T22:53:11.450Z,70.03
2017-09-18T22:55:38.847Z,69.93
2017-09-18T22:58:06.323Z,70.04
2017-09-18T23:00:33.711Z,69.48
2017-09-18T23:03:01.122Z,68.81
2017-09-18T23:05:28.523Z,68.84
2017-09-18T23:07:55.934Z,68.89
2017-09-18T23:10:23.335Z,70.74
2017-09-18T23:12:50.730Z,69.32
2017-09-18T23:15:18.135Z,68.68
2017-09-18T23:17:45.522Z,68.58
2017-09-18T23:20:12.927Z,68.15
2017-09-18T23:22:40.310Z,67.77
2017-09-18T23:25:07.718Z,67.47
2017-09-18T23:27:35.115Z,68.68
2017-09-18T23:30:02.630Z,70.10
2017-09-18T23:32:30.026Z,70.44
2017-09-18T23:34:57.421Z,70.10
2017-09-18T23:37:24.817Z,70.30
2017-09-18T23:39:52.211Z,70.06
2017-09-18T23:42:19.615Z,69.75
2017-09-18T23:44:47.018Z,70.38
2017-09-18T23:47:14.427Z,70.53
2017-09-18T23:49:41.818Z,71.44
2017-09-18T23:52:09.235Z,71.82
2017-09-18T23:54:36.741Z,71.06
2017-09-18T23:57:04.288Z,71.45
2017-09-18T23:59:31.802Z,70.26
